Time;durP1;ratioP1;P1;durP2;ratioP2;P2;SDS_P1;SDS_P2;PMS_P1;PMS_P2;Temp;Humidity;BMP_temperature;BMP_pressure;BME280_temperature;BME280_humidity;BME280_pressure;Samples;Min_cycle;Max_cycle;Signal;HPM_P1;HPM_P2
2022/11/29 00:00:33;;;;;;;21.23;12.57;;;1.90;99.90;;;;;;4989395;28;20255;-66
2022/11/29 00:03:00;;;;;;;24.47;13.13;;;1.80;99.90;;;;;;4990011;28;20690;-64
2022/11/29 00:05:27;;;;;;;21.30;11.90;;;1.80;99.90;;;;;;4989787;28;20266;-64
2022/11/29 00:07:55;;;;;;;23.10;12.27;;;1.80;99.90;;;;;;4988223;28;20234;-64
2022/11/29 00:10:22;;;;;;;21.07;12.10;;;1.80;99.90;;;;;;4986492;28;20688;-63
2022/11/29 00:12:49;;;;;;;20.43;12.27;;;1.90;99.90;;;;;;4990294;28;20208;-64
2022/11/29 00:15:16;;;;;;;27.80;13.87;;;1.90;99.90;;;;;;4989658;28;20215;-66
2022/11/29 00:17:42;;;;;;;21.00;11.93;;;1.90;99.90;;;;;;4989613;28;20208;-65
2022/11/29 00:20:10;;;;;;;18.53;12.00;;;1.90;99.90;;;;;;4988054;28;20207;-62
2022/11/29 00:22:37;;;;;;;21.87;12.30;;;1.90;99.90;;;;;;4989969;28;20208;-66
2022/11/29 00:25:07;;;;;;;19.80;11.13;;;1.90;99.90;;;;;;4988107;28;20212;-63
2022/11/29 00:27:34;;;;;;;21.63;12.67;;;1.90;99.90;;;;;;4989635;28;20673;-64
2022/11/29 00:30:00;;;;;;;23.13;12.90;;;1.90;99.90;;;;;;4989582;28;20222;-65
2022/11/29 00:32:27;;;;;;;23.30;12.57;;;1.90;99.90;;;;;;4990304;28;20219;-63
2022/11/29 00:34:54;;;;;;;18.80;11.77;;;1.80;99.90;;;;;;4987253;28;20227;-63
2022/11/29 00:37:21;;;;;;;21.30;12.17;;;1.80;99.90;;;;;;4990074;28;20232;-66
2022/11/29 00:39:47;;;;;;;20.10;12.17;;;1.90;99.90;;;;;;4985275;28;20231;-65
2022/11/29 00:42:15;;;;;;;22.60;12.63;;;1.80;99.90;;;;;;4990307;28;20208;-67
2022/11/29 00:44:42;;;;;;;19.77;12.23;;;1.80;99.90;;;;;;4987772;28;20212;-64
2022/11/29 00:47:09;;;;;;;21.50;12.00;;;1.80;99.90;;;;;;4990661;28;20204;-65
2022/11/29 00:49:36;;;;;;;22.13;12.83;;;1.90;99.90;;;;;;4988519;28;20212;-63
2022/11/29 00:52:03;;;;;;;19.70;11.33;;;1.80;99.90;;;;;;4987735;28;20661;-62
2022/11/29 00:54:29;;;;;;;19.77;11.97;;;1.90;99.90;;;;;;4989739;28;20211;-64
2022/11/29 00:56:56;;;;;;;20.43;11.90;;;1.90;99.90;;;;;;4988298;28;20238;-64
2022/11/29 00:59:24;;;;;;;22.63;12.37;;;1.90;99.90;;;;;;4989039;28;20613;-63
2022/11/29 01:01:51;;;;;;;21.70;12.90;;;1.90;99.90;;;;;;4989890;28;20216;-62
2022/11/29 01:04:18;;;;;;;20.70;12.53;;;1.90;99.90;;;;;;4988965;28;20211;-64
2022/11/29 01:06:45;;;;;;;21.33;11.90;;;1.90;99.90;;;;;;4987304;28;20196;-62
2022/11/29 01:09:12;;;;;;;25.90;13.00;;;1.80;99.90;;;;;;4988050;28;20203;-64
2022/11/29 01:11:38;;;;;;;20.43;11.50;;;1.80;99.90;;;;;;4989658;28;20616;-64
2022/11/29 01:14:05;;;;;;;19.70;11.60;;;1.80;99.90;;;;;;4988374;28;20219;-64
2022/11/29 01:16:34;;;;;;;19.33;12.07;;;1.90;99.90;;;;;;4989618;28;20227;-63
2022/11/29 01:19:01;;;;;;;20.03;11.40;;;1.90;99.90;;;;;;4988704;28;20580;-63
2022/11/29 01:21:28;;;;;;;22.10;12.17;;;1.90;99.90;;;;;;4987957;28;20208;-65
2022/11/29 01:23:55;;;;;;;21.07;11.73;;;1.80;99.90;;;;;;4983961;28;20208;-63
2022/11/29 01:26:24;;;;;;;20.60;12.03;;;1.80;99.90;;;;;;4989343;28;20589;-65
2022/11/29 01:28:52;;;;;;;24.00;12.17;;;1.80;99.90;;;;;;4988262;28;20673;-67
2022/11/29 01:31:21;;;;;;;20.80;11.80;;;1.80;99.90;;;;;;4988240;28;20207;-65
2022/11/29 01:33:54;;;;;;;22.00;12.60;;;1.70;99.90;;;;;;4990351;28;20203;-64
2022/11/29 01:36:21;;;;;;;22.67;12.73;;;1.70;99.90;;;;;;4987193;28;20220;-63
2022/11/29 01:38:47;;;;;;;21.23;11.77;;;1.70;99.90;;;;;;4987659;28;20626;-63
2022/11/29 01:41:17;;;;;;;20.83;11.97;;;1.80;99.90;;;;;;4987774;28;20211;-62
2022/11/29 01:44:00;;;;;;;22.90;12.80;;;1.80;99.90;;;;;;4988279;28;20215;-63
2022/11/29 01:46:29;;;;;;;18.83;12.23;;;1.70;99.90;;;;;;4986252;28;20200;-64
2022/11/29 01:49:00;;;;;;;19.93;11.83;;;1.70;99.90;;;;;;4992402;28;20222;-63
2022/11/29 01:51:28;;;;;;;22.87;12.00;;;1.80;99.90;;;;;;4992496;28;20208;-65
2022/11/29 01:53:55;;;;;;;24.87;12.77;;;1.70;99.90;;;;;;4991110;28;20270;-65
2022/11/29 01:56:23;;;;;;;22.17;11.93;;;1.70;99.90;;;;;;4993187;28;20231;-64
2022/11/29 01:58:51;;;;;;;21.93;12.63;;;1.70;99.90;;;;;;4991711;28;20219;-65
2022/11/29 02:01:17;;;;;;;22.53;12.77;;;1.70;99.90;;;;;;4990749;28;20250;-63
2022/11/29 02:03:44;;;;;;;21.00;12.67;;;1.70;99.90;;;;;;4989932;28;20200;-64
2022/11/29 02:06:12;;;;;;;25.10;13.27;;;1.70;99.90;;;;;;4992370;28;20287;-65
2022/11/29 02:08:43;;;;;;;20.83;11.77;;;1.70;99.90;;;;;;4991558;28;20212;-64
2022/11/29 02:11:30;;;;;;;24.03;12.77;;;1.70;99.90;;;;;;4992248;28;20216;-64
2022/11/29 02:14:08;;;;;;;19.67;11.90;;;1.70;99.90;;;;;;4988380;28;20228;-64
2022/11/29 02:16:45;;;;;;;18.90;12.03;;;1.70;99.90;;;;;;4992581;28;20922;-65
2022/11/29 02:19:34;;;;;;;20.97;11.93;;;1.70;99.90;;;;;;4989863;28;20207;-65
2022/11/29 02:22:10;;;;;;;22.30;12.73;;;1.80;99.90;;;;;;4990794;28;20307;-65
2022/11/29 02:24:56;;;;;;;21.30;12.37;;;1.80;99.90;;;;;;4988094;28;20204;-67
2022/11/29 02:28:02;;;;;;;20.67;12.50;;;1.80;99.90;;;;;;4986960;28;20199;-63
2022/11/29 02:31:01;;;;;;;22.47;12.43;;;1.80;99.90;;;;;;4972797;28;20727;-63
2022/11/29 02:33:50;;;;;;;24.43;12.20;;;1.80;99.90;;;;;;4988098;28;20590;-63
2022/11/29 02:36:55;;;;;;;20.30;12.07;;;1.80;99.90;;;;;;4991021;28;20220;-65
2022/11/29 02:39:53;;;;;;;22.37;12.13;;;1.80;99.90;;;;;;4991919;28;20235;-65
2022/11/29 02:42:56;;;;;;;20.93;12.27;;;1.80;99.90;;;;;;4989738;28;20584;-64
2022/11/29 02:45:38;;;;;;;20.23;11.50;;;1.80;99.90;;;;;;4975800;28;20199;-64
2022/11/29 02:48:18;;;;;;;21.07;12.20;;;1.80;99.90;;;;;;4988443;28;20204;-64
2022/11/29 02:50:54;;;;;;;23.67;13.00;;;1.80;99.90;;;;;;4990593;28;20657;-65
2022/11/29 02:53:29;;;;;;;22.77;12.17;;;1.90;99.90;;;;;;4988815;28;20204;-64
2022/11/29 02:56:04;;;;;;;22.33;12.43;;;1.90;99.90;;;;;;4992164;28;20207;-67
2022/11/29 02:58:37;;;;;;;22.17;12.33;;;1.80;99.90;;;;;;4990402;28;20734;-63
2022/11/29 03:01:12;;;;;;;19.93;11.77;;;1.90;99.90;;;;;;4990944;28;20231;-64
2022/11/29 03:03:44;;;;;;;22.30;12.13;;;1.90;99.90;;;;;;4986150;28;20780;-67
2022/11/29 03:06:23;;;;;;;23.20;12.33;;;1.90;99.90;;;;;;4984703;28;20191;-66
2022/11/29 03:08:59;;;;;;;23.00;13.10;;;1.90;99.90;;;;;;4986426;28;20218;-62
2022/11/29 03:11:33;;;;;;;21.30;12.00;;;1.90;99.90;;;;;;4988734;28;20590;-66
2022/11/29 03:14:13;;;;;;;22.37;11.57;;;1.90;99.90;;;;;;4990290;28;20202;-63
2022/11/29 03:16:46;;;;;;;19.23;11.40;;;1.90;99.90;;;;;;4990911;28;20356;-63
2022/11/29 03:19:43;;;;;;;19.27;11.93;;;1.90;99.90;;;;;;4988632;28;20227;-64
2022/11/29 03:22:20;;;;;;;19.73;12.03;;;1.90;99.90;;;;;;4955295;28;20253;-63
2022/11/29 03:24:54;;;;;;;21.23;11.90;;;1.90;99.90;;;;;;4990962;28;20203;-65
2022/11/29 03:27:27;;;;;;;21.37;12.53;;;1.90;99.90;;;;;;4990409;28;20299;-65
2022/11/29 03:29:58;;;;;;;20.80;11.87;;;1.90;99.90;;;;;;4990579;28;20204;-63
2022/11/29 03:32:32;;;;;;;21.10;11.97;;;1.90;99.90;;;;;;4989088;28;20207;-64
2022/11/29 03:35:05;;;;;;;19.30;11.37;;;1.90;99.90;;;;;;4990464;28;20212;-65
2022/11/29 03:37:41;;;;;;;19.97;11.50;;;1.90;99.90;;;;;;4989876;28;20227;-65
2022/11/29 03:40:11;;;;;;;19.80;11.27;;;1.90;99.90;;;;;;4990327;28;20251;-64
2022/11/29 03:42:45;;;;;;;21.77;11.33;;;1.90;99.90;;;;;;4988732;28;20322;-63
2022/11/29 03:45:18;;;;;;;19.53;11.03;;;1.90;99.90;;;;;;4983186;28;20594;-63
2022/11/29 03:47:54;;;;;;;20.03;11.30;;;1.90;99.90;;;;;;4989850;28;20211;-63
2022/11/29 03:50:26;;;;;;;19.17;11.60;;;1.90;99.90;;;;;;4987806;28;20196;-64
2022/11/29 03:52:59;;;;;;;19.10;10.40;;;2.00;99.90;;;;;;4990203;28;20196;-64
2022/11/29 03:55:33;;;;;;;20.10;10.97;;;1.90;99.90;;;;;;4990042;28;20203;-65
2022/11/29 03:58:17;;;;;;;19.10;11.40;;;1.90;99.90;;;;;;4990045;28;20223;-64
2022/11/29 04:01:01;;;;;;;19.33;11.03;;;1.90;99.90;;;;;;4989934;28;20223;-65
2022/11/29 04:03:44;;;;;;;19.50;11.53;;;1.90;99.90;;;;;;4989397;28;20204;-64
2022/11/29 04:06:24;;;;;;;18.73;11.43;;;1.90;99.90;;;;;;4988906;28;20208;-64
2022/11/29 04:09:26;;;;;;;20.30;11.90;;;1.90;99.90;;;;;;4988710;28;20535;-68
2022/11/29 04:12:15;;;;;;;24.97;11.20;;;1.90;99.90;;;;;;4986466;28;20747;-64
2022/11/29 04:15:18;;;;;;;20.97;11.20;;;1.90;99.90;;;;;;4985664;28;20900;-65
2022/11/29 04:18:34;;;;;;;19.73;10.97;;;1.80;99.90;;;;;;4988822;28;20222;-66
2022/11/29 04:21:21;;;;;;;18.67;11.07;;;1.90;99.90;;;;;;4980676;28;20215;-64
2022/11/29 04:24:36;;;;;;;21.47;11.53;;;1.80;99.90;;;;;;4985924;28;20204;-65
2022/11/29 04:27:47;;;;;;;17.30;10.73;;;1.90;99.90;;;;;;4972370;28;20561;-63
2022/11/29 04:30:18;;;;;;;19.53;11.00;;;1.80;99.90;;;;;;4986173;28;20214;-63
2022/11/29 04:33:30;;;;;;;22.17;12.27;;;1.90;99.90;;;;;;4989947;28;20237;-65
2022/11/29 04:36:23;;;;;;;20.50;11.57;;;1.90;99.90;;;;;;4968629;28;20877;-65
2022/11/29 04:39:14;;;;;;;21.17;11.20;;;1.90;99.90;;;;;;4989491;28;20254;-64
2022/11/29 04:42:08;;;;;;;20.43;10.87;;;1.90;99.90;;;;;;4989107;28;20210;-63
2022/11/29 04:45:01;;;;;;;21.43;10.73;;;1.90;99.90;;;;;;4988339;28;20379;-65
2022/11/29 04:48:04;;;;;;;18.13;10.30;;;1.90;99.90;;;;;;4987374;28;20543;-64
2022/11/29 04:50:43;;;;;;;23.37;11.10;;;1.80;99.90;;;;;;4973742;28;20208;-65
2022/11/29 04:53:34;;;;;;;19.20;11.13;;;1.80;99.90;;;;;;4986135;28;20200;-66
2022/11/29 04:56:11;;;;;;;17.93;11.60;;;1.80;99.90;;;;;;4987269;28;20215;-65
2022/11/29 04:58:41;;;;;;;20.23;11.70;;;1.70;99.90;;;;;;4989981;28;20440;-63
2022/11/29 05:01:19;;;;;;;19.10;10.33;;;1.70;99.90;;;;;;4987983;28;20521;-65
2022/11/29 05:03:51;;;;;;;21.10;11.43;;;1.70;99.90;;;;;;4989951;28;20679;-64
2022/11/29 05:06:24;;;;;;;21.00;11.53;;;1.70;99.90;;;;;;4987419;28;20208;-64
2022/11/29 05:08:58;;;;;;;21.57;12.03;;;1.70;99.90;;;;;;4985524;28;20226;-67
2022/11/29 05:11:38;;;;;;;21.87;12.00;;;1.70;99.90;;;;;;4988255;28;20656;-66
2022/11/29 05:14:14;;;;;;;20.03;11.37;;;1.70;99.90;;;;;;4982568;28;20218;-66
2022/11/29 05:16:47;;;;;;;27.87;12.37;;;1.60;99.90;;;;;;4989029;28;20669;-65
2022/11/29 05:19:43;;;;;;;23.83;12.30;;;1.60;99.90;;;;;;4987047;28;20234;-66
2022/11/29 05:22:23;;;;;;;20.90;11.97;;;1.70;99.90;;;;;;4988878;28;20208;-65
2022/11/29 05:25:00;;;;;;;23.00;12.00;;;1.70;99.90;;;;;;4993093;28;20331;-63
2022/11/29 05:27:38;;;;;;;23.00;12.43;;;1.70;99.90;;;;;;4985608;28;20219;-64
2022/11/29 05:30:07;;;;;;;25.63;12.53;;;1.70;99.90;;;;;;4990877;28;20203;-66
2022/11/29 05:32:44;;;;;;;25.43;13.50;;;1.70;99.90;;;;;;4992703;28;20569;-64
2022/11/29 05:35:33;;;;;;;22.13;12.83;;;1.70;99.90;;;;;;4993977;28;20227;-63
2022/11/29 05:38:08;;;;;;;24.80;13.17;;;1.70;99.90;;;;;;4991900;28;20555;-68
2022/11/29 05:40:49;;;;;;;27.77;13.60;;;1.70;99.90;;;;;;4991441;28;20214;-65
2022/11/29 05:43:32;;;;;;;23.03;12.53;;;1.70;99.90;;;;;;4993100;28;20207;-64
2022/11/29 05:46:04;;;;;;;20.13;12.00;;;1.70;99.90;;;;;;4990431;28;20208;-65
2022/11/29 05:48:43;;;;;;;24.60;13.33;;;1.70;99.90;;;;;;4992276;28;20205;-65
2022/11/29 05:51:19;;;;;;;23.97;13.63;;;1.70;99.90;;;;;;4992334;28;20631;-65
2022/11/29 05:53:56;;;;;;;21.97;12.23;;;1.70;99.90;;;;;;4992262;28;20196;-66
2022/11/29 05:56:32;;;;;;;26.27;13.10;;;1.80;99.90;;;;;;4987972;28;20527;-65
2022/11/29 05:59:03;;;;;;;22.20;12.80;;;1.70;99.90;;;;;;4992072;28;20216;-65
2022/11/29 06:01:34;;;;;;;24.77;13.03;;;1.80;99.90;;;;;;4990742;28;20210;-66
2022/11/29 06:04:10;;;;;;;23.53;13.90;;;1.80;99.90;;;;;;4993241;28;20203;-64
2022/11/29 06:06:43;;;;;;;24.93;13.83;;;1.80;99.90;;;;;;4992232;28;20928;-64
2022/11/29 06:09:15;;;;;;;26.60;14.50;;;1.80;99.90;;;;;;4989571;28;20201;-62
2022/11/29 06:11:45;;;;;;;23.93;13.60;;;1.80;99.90;;;;;;4988814;28;20208;-65
2022/11/29 06:14:28;;;;;;;21.97;13.17;;;1.90;99.90;;;;;;4994256;28;20204;-64
2022/11/29 06:17:25;;;;;;;26.27;13.90;;;1.90;99.90;;;;;;4992121;28;20223;-64
2022/11/29 06:20:15;;;;;;;28.70;14.07;;;1.90;99.90;;;;;;4986805;28;20212;-67
2022/11/29 06:23:15;;;;;;;27.20;13.50;;;1.90;99.90;;;;;;4986986;28;20231;-65
2022/11/29 06:25:59;;;;;;;27.10;14.20;;;1.90;99.90;;;;;;4992143;28;20227;-64
2022/11/29 06:28:39;;;;;;;24.90;13.87;;;1.90;99.90;;;;;;4991796;28;20574;-65
2022/11/29 06:31:16;;;;;;;23.77;13.97;;;1.90;99.90;;;;;;4987793;28;20208;-67
2022/11/29 06:33:49;;;;;;;24.97;13.63;;;1.90;99.90;;;;;;4992373;28;20207;-67
2022/11/29 06:36:23;;;;;;;23.93;14.53;;;2.00;99.90;;;;;;4992047;28;20209;-65
2022/11/29 06:38:50;;;;;;;25.10;14.70;;;2.00;99.90;;;;;;4990712;28;20239;-66
2022/11/29 06:41:20;;;;;;;22.80;13.60;;;1.90;99.90;;;;;;4993308;28;20571;-65
2022/11/29 06:43:48;;;;;;;22.17;13.20;;;1.90;99.90;;;;;;4992470;28;20204;-68
2022/11/29 06:46:25;;;;;;;25.80;13.67;;;1.90;99.90;;;;;;4993348;28;20219;-66
2022/11/29 06:48:57;;;;;;;22.93;13.67;;;1.90;99.90;;;;;;4989688;28;20713;-67
2022/11/29 06:51:31;;;;;;;24.20;13.07;;;1.90;99.90;;;;;;4990940;28;20202;-65
2022/11/29 06:54:10;;;;;;;22.07;13.70;;;1.80;99.90;;;;;;4989296;28;20208;-66
2022/11/29 06:56:44;;;;;;;29.63;15.23;;;1.90;99.90;;;;;;4989230;28;20207;-66
2022/11/29 06:59:27;;;;;;;27.17;13.43;;;1.80;99.90;;;;;;4989794;28;20222;-66
2022/11/29 07:01:58;;;;;;;22.27;13.20;;;1.80;99.90;;;;;;4993592;28;20195;-65
2022/11/29 07:04:47;;;;;;;25.73;13.47;;;1.80;99.90;;;;;;4992819;28;20211;-66
2022/11/29 07:07:20;;;;;;;26.13;12.77;;;1.80;99.90;;;;;;4993137;28;20196;-66
2022/11/29 07:09:49;;;;;;;26.77;13.83;;;1.80;99.90;;;;;;4994449;28;20204;-65
2022/11/29 07:12:16;;;;;;;21.80;13.50;;;1.80;99.90;;;;;;4995710;28;20208;-65
2022/11/29 07:14:44;;;;;;;24.17;13.10;;;1.80;99.90;;;;;;4992763;28;20216;-66
2022/11/29 07:17:20;;;;;;;24.03;14.50;;;1.80;99.90;;;;;;4992820;28;20231;-63
2022/11/29 07:19:57;;;;;;;23.80;13.80;;;1.80;99.90;;;;;;4995173;28;20226;-64
2022/11/29 07:22:39;;;;;;;22.50;14.33;;;1.80;99.90;;;;;;4993880;28;20200;-64
2022/11/29 07:25:19;;;;;;;25.43;14.73;;;1.80;99.90;;;;;;4991685;28;20208;-64
2022/11/29 07:27:53;;;;;;;24.13;13.53;;;1.80;99.90;;;;;;4993805;28;20689;-65
2022/11/29 07:30:23;;;;;;;24.63;13.63;;;1.80;99.90;;;;;;5000263;28;20210;-65
2022/11/29 07:33:03;;;;;;;26.60;13.70;;;1.80;99.90;;;;;;4997896;28;20723;-63
2022/11/29 07:35:38;;;;;;;24.63;14.10;;;1.80;99.90;;;;;;4992889;28;20207;-65
2022/11/29 07:38:15;;;;;;;25.93;14.10;;;1.80;99.90;;;;;;4987567;28;20760;-65
2022/11/29 07:40:51;;;;;;;24.17;14.60;;;1.80;99.90;;;;;;4991051;28;20207;-63
2022/11/29 07:43:28;;;;;;;22.07;14.00;;;1.80;99.90;;;;;;4985962;28;20581;-74
2022/11/29 07:45:56;;;;;;;25.20;14.57;;;1.80;99.90;;;;;;4992295;28;20333;-66
2022/11/29 07:48:23;;;;;;;25.53;14.70;;;1.80;99.90;;;;;;4993549;28;20200;-67
2022/11/29 07:50:50;;;;;;;27.57;14.37;;;1.80;99.90;;;;;;4992118;28;20211;-69
2022/11/29 07:53:20;;;;;;;22.67;13.53;;;1.80;99.90;;;;;;4990991;28;20674;-65
2022/11/29 07:55:47;;;;;;;25.40;13.13;;;1.80;99.90;;;;;;4992491;28;20356;-68
2022/11/29 07:58:15;;;;;;;24.57;14.43;;;1.80;99.90;;;;;;4989658;28;20262;-66
2022/11/29 08:00:44;;;;;;;24.97;14.07;;;1.80;99.90;;;;;;4994724;28;20228;-68
2022/11/29 08:03:11;;;;;;;24.67;13.00;;;1.90;99.90;;;;;;4993798;28;20204;-70
2022/11/29 08:05:38;;;;;;;25.43;13.70;;;1.90;99.90;;;;;;4992911;28;20226;-68
2022/11/29 08:08:05;;;;;;;24.30;13.53;;;1.90;99.90;;;;;;4995695;28;20223;-68
2022/11/29 08:10:34;;;;;;;23.17;13.47;;;1.90;99.90;;;;;;4996136;28;20219;-68
2022/11/29 08:13:01;;;;;;;22.17;13.73;;;1.90;99.90;;;;;;4994778;28;20208;-67
2022/11/29 08:15:27;;;;;;;20.30;13.17;;;1.90;99.90;;;;;;4989003;28;20223;-64
2022/11/29 08:17:54;;;;;;;22.47;13.37;;;1.90;99.90;;;;;;4994947;28;20238;-67
2022/11/29 08:20:21;;;;;;;23.93;13.50;;;2.00;99.90;;;;;;4998010;28;20214;-66
2022/11/29 08:22:54;;;;;;;22.13;13.17;;;2.00;99.90;;;;;;4997828;28;20667;-68
2022/11/29 08:25:21;;;;;;;24.07;13.97;;;2.00;99.90;;;;;;4997504;28;20227;-67
2022/11/29 08:27:50;;;;;;;25.73;13.57;;;2.00;99.90;;;;;;5002451;28;20204;-67
2022/11/29 08:30:21;;;;;;;23.17;13.27;;;2.00;99.90;;;;;;4997199;28;20223;-71
2022/11/29 08:32:48;;;;;;;25.57;14.27;;;2.10;99.90;;;;;;4997582;28;20295;-67
2022/11/29 08:35:15;;;;;;;25.33;13.83;;;2.10;99.90;;;;;;4996059;28;20212;-66
2022/11/29 08:37:42;;;;;;;23.60;14.50;;;2.20;99.90;;;;;;4995486;28;20568;-67
2022/11/29 08:40:09;;;;;;;24.90;13.93;;;2.20;99.90;;;;;;4989889;28;20243;-67
2022/11/29 08:42:36;;;;;;;20.57;12.77;;;2.20;99.90;;;;;;4993504;28;20227;-67
2022/11/29 08:45:05;;;;;;;21.97;13.23;;;2.20;99.90;;;;;;4993787;28;20235;-66
2022/11/29 08:47:39;;;;;;;24.90;13.00;;;2.20;99.90;;;;;;4992463;28;20226;-67
2022/11/29 08:50:11;;;;;;;26.17;13.47;;;2.20;99.90;;;;;;4988598;28;20215;-72
2022/11/29 08:55:25;;;;;;;22.63;12.90;;;2.20;99.90;;;;;;4988383;28;20199;-72
2022/11/29 08:57:53;;;;;;;19.97;12.63;;;2.20;99.90;;;;;;4989908;28;20282;-66
2022/11/29 09:00:21;;;;;;;19.73;12.67;;;2.30;99.90;;;;;;4993113;28;20238;-71
2022/11/29 09:02:48;;;;;;;22.67;13.13;;;2.30;99.90;;;;;;4983652;28;20211;-70
2022/11/29 09:05:15;;;;;;;22.57;13.47;;;2.20;99.90;;;;;;4990772;28;20214;-72
2022/11/29 09:07:41;;;;;;;23.13;13.33;;;2.20;99.90;;;;;;4989952;28;20680;-71
2022/11/29 09:10:10;;;;;;;20.67;13.43;;;2.30;99.90;;;;;;4990044;28;20218;-70
2022/11/29 09:12:40;;;;;;;19.77;11.37;;;2.30;99.90;;;;;;4989430;28;20208;-72
2022/11/29 09:15:09;;;;;;;22.43;13.03;;;2.30;99.90;;;;;;4987001;28;20211;-71
2022/11/29 09:17:37;;;;;;;24.00;14.27;;;2.30;99.90;;;;;;4988338;28;20215;-71
2022/11/29 09:20:05;;;;;;;23.40;13.23;;;2.30;99.90;;;;;;4989387;28;20576;-71
2022/11/29 09:22:31;;;;;;;23.60;12.77;;;2.40;99.90;;;;;;4986864;28;20208;-71
2022/11/29 09:24:58;;;;;;;20.77;12.67;;;2.30;99.90;;;;;;4985372;28;20212;-72
2022/11/29 09:27:25;;;;;;;22.83;12.90;;;2.40;99.90;;;;;;4990211;28;20227;-72
2022/11/29 09:29:52;;;;;;;25.47;13.70;;;2.20;99.90;;;;;;4989475;28;20279;-71
2022/11/29 09:32:20;;;;;;;21.57;12.83;;;2.40;99.90;;;;;;4988120;28;20216;-73
2022/11/29 09:34:48;;;;;;;20.93;11.63;;;2.40;99.90;;;;;;4987411;28;20203;-73
2022/11/29 09:37:15;;;;;;;22.90;13.73;;;2.40;99.90;;;;;;4989921;28;20226;-70
2022/11/29 09:39:42;;;;;;;20.97;13.00;;;2.40;99.90;;;;;;4986683;28;20266;-72
2022/11/29 09:42:33;;;;;;;25.30;13.07;;;2.40;99.90;;;;;;4989085;28;20222;-73
2022/11/29 09:45:06;;;;;;;20.37;12.47;;;2.40;99.90;;;;;;4983842;28;20901;-73
2022/11/29 09:47:58;;;;;;;19.50;12.27;;;2.40;99.90;;;;;;4989949;28;20204;-66
2022/11/29 09:50:32;;;;;;;19.60;11.73;;;2.40;99.90;;;;;;4982633;28;20538;-69
2022/11/29 09:53:19;;;;;;;22.83;13.37;;;2.40;99.90;;;;;;4990459;28;20207;-72
2022/11/29 09:56:11;;;;;;;21.80;13.27;;;2.50;99.90;;;;;;4987083;28;20200;-73
2022/11/29 09:58:48;;;;;;;25.27;11.93;;;2.50;99.90;;;;;;4984822;28;20228;-75
2022/11/29 10:01:21;;;;;;;23.43;13.17;;;2.50;99.90;;;;;;4987112;28;20246;-72
2022/11/29 10:03:52;;;;;;;22.33;11.93;;;2.60;99.90;;;;;;4988263;28;20215;-70
2022/11/29 10:06:24;;;;;;;23.33;12.27;;;2.50;99.90;;;;;;4988809;28;20208;-71
2022/11/29 10:08:57;;;;;;;18.13;11.00;;;2.50;99.90;;;;;;4991330;28;20505;-71
2022/11/29 10:11:28;;;;;;;20.03;11.70;;;2.60;99.90;;;;;;4993124;28;20303;-72
2022/11/29 10:14:01;;;;;;;20.53;12.17;;;2.60;99.90;;;;;;4993957;28;20203;-72
2022/11/29 10:16:38;;;;;;;19.03;11.87;;;2.60;99.90;;;;;;4991315;28;20223;-71
2022/11/29 10:19:14;;;;;;;21.63;12.83;;;2.60;99.90;;;;;;4991800;28;20227;-69
2022/11/29 10:21:47;;;;;;;17.23;12.10;;;2.60;99.90;;;;;;4991934;28;20228;-72
2022/11/29 10:24:19;;;;;;;20.70;12.07;;;2.60;99.90;;;;;;4993465;28;20204;-73
2022/11/29 10:26:46;;;;;;;18.60;11.70;;;2.70;99.90;;;;;;4987938;28;20200;-71
2022/11/29 10:29:15;;;;;;;21.00;11.80;;;2.70;99.90;;;;;;4988810;28;20641;-71
2022/11/29 10:31:45;;;;;;;23.17;12.03;;;2.70;99.90;;;;;;4987313;28;20206;-72
2022/11/29 10:34:14;;;;;;;17.10;11.37;;;2.70;99.90;;;;;;4990902;28;20216;-75
2022/11/29 10:36:45;;;;;;;18.17;11.93;;;2.80;99.90;;;;;;4987482;28;20296;-73
2022/11/29 10:39:19;;;;;;;21.73;12.43;;;2.80;99.90;;;;;;4993154;28;20585;-69
2022/11/29 10:41:48;;;;;;;18.63;11.77;;;2.80;99.90;;;;;;4984762;28;20207;-68
2022/11/29 10:44:15;;;;;;;18.80;11.33;;;2.90;99.90;;;;;;4991208;28;20204;-68
2022/11/29 10:46:42;;;;;;;18.13;11.77;;;2.80;99.90;;;;;;4991983;28;20653;-68
2022/11/29 10:49:14;;;;;;;23.83;12.97;;;2.80;99.90;;;;;;4989450;28;20207;-67
2022/11/29 10:51:43;;;;;;;21.10;11.47;;;2.90;99.90;;;;;;4993757;28;20192;-76
2022/11/29 10:54:34;;;;;;;19.13;11.23;;;2.90;99.90;;;;;;4989438;28;20208;-74
2022/11/29 10:57:02;;;;;;;14.43;10.17;;;2.80;99.90;;;;;;4986050;28;20213;-70
2022/11/29 10:59:31;;;;;;;19.47;11.23;;;2.90;99.90;;;;;;4987530;28;20239;-68
2022/11/29 11:01:59;;;;;;;17.93;11.60;;;2.90;99.90;;;;;;4982890;28;20703;-65
2022/11/29 11:04:29;;;;;;;16.10;11.20;;;2.90;99.90;;;;;;4989945;28;20222;-70
2022/11/29 11:07:00;;;;;;;19.27;11.13;;;2.80;99.90;;;;;;4988943;28;20218;-71
2022/11/29 11:09:32;;;;;;;22.27;12.03;;;2.90;99.90;;;;;;4989801;28;20202;-69
2022/11/29 11:12:01;;;;;;;18.50;12.60;;;2.80;99.90;;;;;;4990234;28;20254;-68
2022/11/29 11:14:30;;;;;;;18.03;11.33;;;2.80;99.90;;;;;;4991328;28;20216;-65
2022/11/29 11:17:14;;;;;;;19.67;11.30;;;2.80;99.90;;;;;;4989037;28;20207;-70
2022/11/29 11:19:42;;;;;;;17.00;11.50;;;2.80;99.90;;;;;;4989619;28;20220;-67
2022/11/29 11:22:20;;;;;;;22.63;13.77;;;2.80;99.90;;;;;;4992068;28;20223;-68
2022/11/29 11:24:56;;;;;;;19.53;12.17;;;2.80;99.90;;;;;;4984405;28;20199;-68
2022/11/29 11:27:29;;;;;;;18.57;12.33;;;2.90;99.90;;;;;;4989559;28;20206;-69
2022/11/29 11:29:56;;;;;;;18.10;11.60;;;2.90;99.90;;;;;;4993004;28;20287;-69
2022/11/29 11:32:23;;;;;;;18.87;11.50;;;2.90;99.90;;;;;;4986325;28;20219;-68
2022/11/29 11:34:55;;;;;;;22.43;12.33;;;2.90;99.90;;;;;;4985996;28;20208;-68
2022/11/29 11:37:25;;;;;;;23.07;12.50;;;2.90;99.90;;;;;;4987579;28;20216;-69
2022/11/29 11:39:54;;;;;;;17.60;11.27;;;2.90;99.90;;;;;;4987223;28;20266;-71
2022/11/29 11:42:36;;;;;;;18.73;11.70;;;2.90;99.90;;;;;;4987193;28;20219;-69
2022/11/29 11:45:21;;;;;;;16.77;10.33;;;2.90;99.90;;;;;;4991713;28;20238;-67
2022/11/29 11:47:51;;;;;;;18.63;11.43;;;3.00;99.90;;;;;;4987751;28;20204;-70
2022/11/29 11:50:27;;;;;;;20.73;11.87;;;2.90;99.90;;;;;;4987934;28;20204;-70
2022/11/29 11:52:57;;;;;;;18.23;11.50;;;2.90;99.90;;;;;;4988248;28;20211;-69
2022/11/29 11:55:34;;;;;;;17.30;11.23;;;2.90;99.90;;;;;;4986103;28;20222;-71
2022/11/29 11:58:03;;;;;;;17.10;10.97;;;2.80;99.90;;;;;;4985726;28;20260;-71
2022/11/29 12:00:44;;;;;;;17.27;10.83;;;2.80;99.90;;;;;;4984945;28;20235;-71
2022/11/29 12:03:32;;;;;;;16.40;11.13;;;2.80;99.90;;;;;;4988649;28;20210;-68
2022/11/29 12:06:06;;;;;;;19.27;11.80;;;2.80;99.90;;;;;;4994608;28;20223;-70
2022/11/29 12:08:36;;;;;;;17.77;11.33;;;2.70;99.90;;;;;;4991119;28;20204;-69
2022/11/29 12:11:06;;;;;;;19.13;12.00;;;2.70;99.90;;;;;;4998851;28;20214;-67
2022/11/29 12:13:39;;;;;;;17.57;11.70;;;2.60;99.90;;;;;;4990543;28;20543;-66
2022/11/29 12:16:16;;;;;;;17.60;10.40;;;2.70;99.90;;;;;;4988092;28;20196;-67
2022/11/29 12:18:48;;;;;;;18.97;12.00;;;2.60;99.90;;;;;;4990625;28;20247;-69
2022/11/29 12:21:18;;;;;;;18.93;11.50;;;2.70;99.90;;;;;;4989024;28;20204;-65
2022/11/29 12:23:52;;;;;;;19.57;11.63;;;2.60;99.90;;;;;;4992987;28;20203;-71
2022/11/29 12:26:22;;;;;;;21.37;12.33;;;2.60;99.90;;;;;;4992538;28;20681;-68
2022/11/29 12:28:50;;;;;;;21.47;12.03;;;2.60;99.90;;;;;;4993908;28;20201;-68
2022/11/29 12:31:30;;;;;;;23.97;12.03;;;2.60;99.90;;;;;;4997270;28;20216;-67
2022/11/29 12:34:06;;;;;;;18.17;11.63;;;2.60;99.90;;;;;;4987246;28;20212;-72
2022/11/29 12:36:39;;;;;;;19.40;12.27;;;2.60;99.90;;;;;;4994772;28;20211;-72
2022/11/29 12:39:31;;;;;;;21.07;12.37;;;2.60;99.90;;;;;;4990793;28;20243;-69
2022/11/29 12:42:09;;;;;;;18.80;11.40;;;2.60;99.90;;;;;;4981768;28;20212;-67
2022/11/29 12:44:46;;;;;;;21.27;12.50;;;2.60;99.90;;;;;;4984468;28;20204;-68
2022/11/29 12:47:22;;;;;;;20.33;12.17;;;2.70;99.90;;;;;;4987592;28;20222;-68
2022/11/29 12:50:00;;;;;;;18.67;12.13;;;2.60;99.90;;;;;;4987005;28;20195;-69
2022/11/29 12:52:31;;;;;;;17.90;11.53;;;2.60;99.90;;;;;;4988406;28;20622;-68
2022/11/29 12:55:07;;;;;;;17.93;11.43;;;2.60;99.90;;;;;;4988034;28;20660;-69
2022/11/29 12:57:42;;;;;;;18.23;11.87;;;2.60;99.90;;;;;;4988715;28;20207;-68
2022/11/29 13:00:13;;;;;;;19.87;12.07;;;2.50;99.90;;;;;;4990118;28;20242;-70
2022/11/29 13:02:58;;;;;;;17.03;11.23;;;2.50;99.90;;;;;;4991150;28;20258;-69
2022/11/29 13:05:54;;;;;;;20.10;12.03;;;2.60;99.90;;;;;;4983113;28;20247;-70
2022/11/29 13:08:44;;;;;;;19.23;12.33;;;2.60;99.90;;;;;;4986632;28;20210;-70
2022/11/29 13:11:19;;;;;;;18.10;11.63;;;2.60;99.90;;;;;;4988883;28;20539;-69
2022/11/29 13:13:49;;;;;;;17.50;11.77;;;2.60;99.90;;;;;;4991774;28;20207;-70
2022/11/29 13:16:31;;;;;;;20.07;11.83;;;2.60;99.90;;;;;;4988287;28;20227;-69